Time;durP1;ratioP1;P1;durP2;ratioP2;P2;SDS_P1;SDS_P2;PMS_P1;PMS_P2;Temp;Humidity;BMP_temperature;BMP_pressure;BME280_temperature;BME280_humidity;BME280_pressure;Samples;Min_cycle;Max_cycle;Signal;HPM_P1;HPM_P2
2022/08/26 00:01:40;;;;;;;30.80;13.25;;;;;;;29.64;32.21;99943.69;4999682;28;20053;-71
2022/08/26 00:04:07;;;;;;;31.98;13.45;;;;;;;29.55;32.33;99943.38;5016209;28;20060;-71
2022/08/26 00:06:33;;;;;;;31.42;13.43;;;;;;;29.33;32.15;99942.00;4999747;28;20049;-71
2022/08/26 00:08:59;;;;;;;27.95;13.45;;;;;;;29.46;32.49;99944.22;4999667;28;20052;-72
2022/08/26 00:11:25;;;;;;;26.45;13.50;;;;;;;29.57;33.35;99932.13;5032853;28;20045;-71
2022/08/26 00:13:54;;;;;;;27.58;12.77;;;;;;;29.61;32.35;99945.00;5032319;28;20155;-72
2022/08/26 00:16:21;;;;;;;34.70;13.68;;;;;;;29.56;32.87;99938.72;4999691;28;20493;-72
2022/08/26 00:18:47;;;;;;;21.33;12.43;;;;;;;29.47;31.97;99933.00;5032490;28;20358;-71
2022/08/26 00:21:12;;;;;;;22.30;12.93;;;;;;;29.54;32.09;99941.72;5032557;28;20055;-70
2022/08/26 00:23:39;;;;;;;25.45;12.20;;;;;;;29.52;31.85;99943.91;4998706;28;20119;-70
2022/08/26 00:26:05;;;;;;;27.70;12.52;;;;;;;29.48;31.67;99942.84;5013337;28;20516;-71
2022/08/26 00:28:32;;;;;;;22.25;12.75;;;;;;;29.54;31.50;99943.63;5013418;28;20060;-72
2022/08/26 00:31:00;;;;;;;24.20;12.85;;;;;;;29.43;31.84;99929.13;5013790;28;20120;-71
2022/08/26 00:33:28;;;;;;;17.25;11.73;;;;;;;29.45;31.31;99935.16;5013475;28;20041;-71
2022/08/26 00:35:54;;;;;;;21.77;11.45;;;;;;;29.51;31.57;99945.03;4997151;28;20146;-71
2022/08/26 00:38:21;;;;;;;23.88;11.90;;;;;;;29.57;31.46;99946.66;5029691;28;20076;-71
2022/08/26 00:40:54;;;;;;;23.23;12.15;;;;;;;29.72;31.30;99950.53;5015461;28;20564;-73
2022/08/26 00:43:21;;;;;;;19.88;11.82;;;;;;;29.77;31.27;99950.53;5031979;28;20119;-72
2022/08/26 00:46:13;;;;;;;25.08;11.88;;;;;;;29.92;31.50;99947.75;5015596;28;20123;-71
2022/08/26 00:48:41;;;;;;;27.05;13.88;;;;;;;29.93;31.70;99952.13;4998651;28;20183;-71
2022/08/26 00:51:11;;;;;;;26.65;11.60;;;;;;;30.01;30.47;99946.94;5031373;28;20127;-71
2022/08/26 00:53:43;;;;;;;23.77;12.32;;;;;;;30.07;28.51;99955.94;5015124;28;20053;-72
2022/08/26 00:56:14;;;;;;;20.48;12.43;;;;;;;30.16;28.13;99949.63;5031819;28;20114;-72
2022/08/26 00:58:41;;;;;;;19.75;11.90;;;;;;;30.04;28.31;99948.28;5048206;28;20037;-72
2022/08/26 01:01:08;;;;;;;28.60;13.75;;;;;;;30.16;31.75;99946.88;5031256;28;20080;-71
2022/08/26 01:03:36;;;;;;;21.02;12.48;;;;;;;30.18;28.10;99952.09;5031702;28;20187;-70
2022/08/26 01:06:02;;;;;;;24.38;12.30;;;;;;;29.98;28.29;99938.44;5015389;28;20056;-73
2022/08/26 01:08:28;;;;;;;17.75;11.52;;;;;;;30.10;28.27;99950.75;4982662;28;20037;-71
2022/08/26 01:10:55;;;;;;;22.95;12.57;;;;;;;30.15;29.54;99939.78;4982299;28;20041;-71
2022/08/26 01:13:21;;;;;;;21.50;11.80;;;;;;;30.15;29.30;99944.44;4998511;28;20041;-70
2022/08/26 01:15:50;;;;;;;22.75;12.35;;;;;;;30.06;28.53;99937.88;4998778;28;20456;-71
2022/08/26 01:18:16;;;;;;;23.38;12.18;;;;;;;30.02;29.07;99942.25;5031385;28;20052;-73
2022/08/26 01:21:06;;;;;;;24.65;11.73;;;;;;;30.07;28.26;99937.59;5031056;28;20053;-73
2022/08/26 01:23:36;;;;;;;23.95;12.25;;;;;;;30.12;29.23;99944.97;5031744;28;20509;-72
2022/08/26 01:26:10;;;;;;;17.58;11.88;;;;;;;30.13;28.62;99936.47;5015167;28;20045;-73
2022/08/26 01:28:37;;;;;;;25.40;11.95;;;;;;;30.05;29.12;99942.53;5031169;28;20061;-71
2022/08/26 01:31:27;;;;;;;16.52;10.07;;;;;;;30.14;27.06;99945.53;5017329;28;20045;-71
2022/08/26 01:34:04;;;;;;;;;;;;;;;30.22;27.42;99948.53;5014716;28;20182;-70
2022/08/26 01:36:30;;;;;;;27.83;11.60;;;;;;;30.12;27.75;99943.06;4998355;28;19921;-71
2022/08/26 01:38:56;;;;;;;20.30;10.80;;;;;;;30.04;27.47;99949.13;5014323;28;20144;-71
2022/08/26 01:41:22;;;;;;;21.23;12.02;;;;;;;29.92;28.96;99939.53;5014276;28;20512;-71
2022/08/26 01:43:50;;;;;;;21.08;11.95;;;;;;;30.06;28.96;99949.63;4997626;28;20416;-72
2022/08/26 01:46:16;;;;;;;22.80;12.85;;;;;;;29.98;29.75;99938.44;5014411;28;20106;-70
2022/08/26 01:48:44;;;;;;;29.67;13.40;;;;;;;29.98;30.70;99933.78;4998046;28;20046;-71
2022/08/26 01:51:11;;;;;;;25.35;13.23;;;;;;;29.87;31.72;99931.31;5014151;28;20049;-71
2022/08/26 01:53:37;;;;;;;22.67;11.82;;;;;;;29.79;30.21;99943.66;4997670;28;20052;-71
2022/08/26 01:56:04;;;;;;;17.95;11.88;;;;;;;29.79;29.63;99945.56;4997993;28;20049;-72
2022/08/26 01:58:35;;;;;;;18.35;11.32;;;;;;;29.82;28.44;99939.53;5030698;28;20049;-70
2022/08/26 02:01:01;;;;;;;20.00;11.45;;;;;;;29.77;27.72;99956.00;5013742;28;20111;-71
2022/08/26 02:03:28;;;;;;;18.20;9.93;;;;;;;29.66;27.46;99941.50;5029853;28;20064;-70
2022/08/26 02:06:02;;;;;;;19.17;9.75;;;;;;;29.92;26.59;99950.50;5030766;28;20048;-71
2022/08/26 02:08:59;;;;;;;39.90;15.13;;;;;;;29.93;29.22;99946.66;5014050;28;20076;-71
2022/08/26 02:11:24;;;;;;;24.38;11.77;;;;;;;29.75;30.26;99947.22;4981240;28;20075;-71
2022/08/26 02:13:54;;;;;;;18.33;10.70;;;;;;;29.83;28.79;99954.91;5046667;28;20088;-70
2022/08/26 02:16:23;;;;;;;28.95;13.90;;;;;;;29.78;31.71;99930.25;5046780;28;20038;-72
2022/08/26 02:18:50;;;;;;;22.58;12.57;;;;;;;29.59;31.24;99947.22;5030081;28;20516;-72
2022/08/26 02:21:16;;;;;;;22.40;12.27;;;;;;;29.35;31.35;99948.84;5030009;28;20111;-71
2022/08/26 02:23:42;;;;;;;23.98;12.13;;;;;;;29.39;30.45;99946.38;5030012;28;20128;-72
2022/08/26 02:26:18;;;;;;;29.80;14.02;;;;;;;29.41;32.82;99934.09;5030088;28;20042;-72
2022/08/26 02:29:01;;;;;;;19.08;12.00;;;;;;;29.42;30.42;99948.56;5013474;28;20519;-72
2022/08/26 02:31:27;;;;;;;20.05;11.60;;;;;;;29.17;29.36;99924.75;5013312;28;20068;-72
2022/08/26 02:33:53;;;;;;;23.23;12.93;;;;;;;29.18;28.79;99955.69;5029910;28;20528;-70
2022/08/26 02:36:24;;;;;;;24.27;12.00;;;;;;;29.25;29.49;99943.38;4980823;28;20131;-71
2022/08/26 02:38:50;;;;;;;20.88;13.00;;;;;;;29.17;30.13;99943.91;4980743;28;20049;-71
2022/08/26 02:41:16;;;;;;;24.50;13.52;;;;;;;29.20;30.83;99948.81;4997198;28;20222;-70
2022/08/26 02:43:42;;;;;;;28.48;13.88;;;;;;;29.03;33.06;99947.41;4997119;28;20088;-71
2022/08/26 02:46:08;;;;;;;30.05;13.27;;;;;;;28.78;32.10;99953.63;4996920;28;20099;-71
2022/08/26 02:48:34;;;;;;;27.13;14.63;;;;;;;28.62;32.63;99951.94;4997308;28;20079;-71
2022/08/26 02:51:00;;;;;;;25.15;14.00;;;;;;;28.44;32.42;99955.13;5013159;28;20049;-71
2022/08/26 02:53:27;;;;;;;23.27;13.57;;;;;;;28.32;32.89;99954.50;4996920;28;20045;-71
2022/08/26 02:55:53;;;;;;;32.22;14.10;;;;;;;28.33;32.86;99955.31;4996471;28;20492;-71
2022/08/26 02:58:21;;;;;;;25.63;14.30;;;;;;;28.39;33.29;99956.97;4996657;28;20069;-72
2022/08/26 03:00:47;;;;;;;24.90;14.35;;;;;;;28.39;32.99;99954.25;5029345;28;21078;-71
2022/08/26 03:03:14;;;;;;;27.13;14.18;;;;;;;28.40;32.86;99959.44;5012838;28;20102;-71
2022/08/26 03:05:41;;;;;;;26.02;13.15;;;;;;;28.37;32.54;99953.72;5012938;28;20045;-71
2022/08/26 03:08:10;;;;;;;34.70;12.88;;;;;;;28.28;32.66;99955.31;5013161;28;20588;-71
2022/08/26 03:10:37;;;;;;;22.15;12.90;;;;;;;28.44;33.18;99960.56;4997598;28;20049;-71
2022/08/26 03:13:03;;;;;;;23.52;13.20;;;;;;;28.45;32.66;99969.56;5045548;28;20060;-71
2022/08/26 03:15:29;;;;;;;24.63;12.35;;;;;;;28.41;32.71;99963.84;5012626;28;20038;-71
2022/08/26 03:17:55;;;;;;;27.35;12.90;;;;;;;28.47;32.36;99951.88;4996516;28;20073;-70
2022/08/26 03:20:20;;;;;;;28.38;12.65;;;;;;;28.52;32.17;99971.03;5030501;28;20037;-70
2022/08/26 03:22:46;;;;;;;32.03;13.93;;;;;;;28.33;33.12;99975.28;4996173;28;20103;-70
2022/08/26 03:25:14;;;;;;;26.88;14.02;;;;;;;28.34;32.81;99965.97;4979916;28;20049;-71
2022/08/26 03:27:39;;;;;;;30.20;13.85;;;;;;;28.11;32.89;99971.06;4980445;28;20060;-73
2022/08/26 03:32:51;;;;;;;25.15;13.13;;;;;;;27.93;33.34;99975.84;4998508;28;20045;-71
2022/08/26 03:35:17;;;;;;;28.20;15.05;;;;;;;27.87;33.98;99970.63;5012438;28;20048;-71
2022/08/26 03:37:43;;;;;;;32.85;15.13;;;;;;;27.89;34.26;99971.97;4996122;28;20397;-71
2022/08/26 03:40:10;;;;;;;34.25;15.00;;;;;;;27.91;34.63;99971.72;4996488;28;20050;-71
2022/08/26 03:42:38;;;;;;;26.70;14.75;;;;;;;28.02;34.28;99981.63;5030372;28;20042;-71
2022/08/26 03:45:06;;;;;;;28.23;15.02;;;;;;;28.01;34.31;99982.72;5028762;28;20041;-70
2022/08/26 03:47:32;;;;;;;32.63;14.77;;;;;;;27.70;34.65;99972.63;5028715;28;20037;-70
2022/08/26 03:49:58;;;;;;;24.40;14.13;;;;;;;27.54;35.22;99977.13;5028730;28;20112;-70
2022/08/26 03:52:24;;;;;;;24.15;14.07;;;;;;;27.41;35.25;99980.31;4996099;28;20076;-70
2022/08/26 03:54:50;;;;;;;28.60;14.43;;;;;;;27.26;35.59;99982.88;4995997;28;20045;-69
2022/08/26 03:57:16;;;;;;;25.17;14.02;;;;;;;27.13;35.72;99986.00;5012272;28;20417;-70
2022/08/26 03:59:42;;;;;;;20.98;12.18;;;;;;;27.15;34.95;99983.84;5029985;28;20042;-71
2022/08/26 04:02:08;;;;;;;30.83;12.90;;;;;;;27.14;35.01;99987.63;5012458;28;20058;-70
2022/08/26 04:04:34;;;;;;;27.98;11.95;;;;;;;27.21;34.57;99971.91;5012203;28;20052;-71
2022/08/26 04:07:00;;;;;;;30.63;12.35;;;;;;;27.45;33.91;99992.34;4995840;28;20048;-73
2022/08/26 04:09:26;;;;;;;26.65;11.10;;;;;;;27.54;33.74;99992.69;4995807;28;20053;-74
2022/08/26 04:11:53;;;;;;;23.63;10.85;;;;;;;27.70;33.15;99989.00;5028476;28;20136;-72
2022/08/26 04:14:31;;;;;;;22.25;11.60;;;;;;;27.82;33.50;99986.91;5012699;28;20056;-70
2022/08/26 04:16:57;;;;;;;18.65;11.70;;;;;;;28.02;32.87;99990.66;5028686;28;20531;-70
2022/08/26 04:19:23;;;;;;;18.17;10.68;;;;;;;28.29;32.01;99996.03;5028466;28;20060;-70
2022/08/26 04:21:51;;;;;;;15.43;9.90;;;;;;;28.51;31.27;99995.91;5028510;28;20048;-71
2022/08/26 04:24:18;;;;;;;21.58;9.60;;;;;;;28.62;30.61;99979.28;5028819;28;20147;-71
2022/08/26 04:26:44;;;;;;;17.08;8.82;;;;;;;28.70;30.65;99980.66;4998713;28;20052;-71
2022/08/26 04:29:19;;;;;;;15.85;9.75;;;;;;;29.05;30.29;99995.31;4983190;28;20037;-71
2022/08/26 04:31:46;;;;;;;16.63;8.68;;;;;;;29.08;29.84;99992.03;5032116;28;20042;-71
2022/08/26 04:34:13;;;;;;;16.75;9.43;;;;;;;29.17;29.59;99990.41;4999545;28;20528;-71
2022/08/26 04:36:39;;;;;;;13.52;8.70;;;;;;;29.24;29.39;99999.19;5015541;28;20068;-71
2022/08/26 04:39:05;;;;;;;18.63;9.38;;;;;;;29.43;29.49;99992.09;4999428;28;20178;-71
2022/08/26 04:41:32;;;;;;;17.33;9.02;;;;;;;29.58;28.66;99994.84;4982693;28;20083;-71
2022/08/26 04:43:58;;;;;;;15.18;9.65;;;;;;;29.62;28.73;100006.06;5033120;28;20045;-71
2022/08/26 04:46:24;;;;;;;17.70;9.43;;;;;;;29.78;29.01;99976.81;4998666;28;20456;-71
2022/08/26 04:48:51;;;;;;;17.73;9.43;;;;;;;29.96;28.50;99996.25;5015357;28;20091;-72
2022/08/26 04:51:18;;;;;;;18.10;9.93;;;;;;;30.09;28.69;99986.63;5031774;28;20412;-70
2022/08/26 04:53:44;;;;;;;17.33;10.77;;;;;;;30.21;29.20;99996.25;5015636;28;20042;-73
2022/08/26 04:56:11;;;;;;;16.42;9.75;;;;;;;30.44;28.96;100001.13;4982756;28;20136;-70
2022/08/26 04:58:37;;;;;;;21.10;10.55;;;;;;;30.49;28.40;100000.28;4998845;28;20120;-70
2022/08/26 05:01:03;;;;;;;20.60;10.98;;;;;;;30.62;28.56;100002.41;5013778;28;20160;-70
2022/08/26 05:03:30;;;;;;;18.60;11.63;;;;;;;30.65;29.44;100001.84;5014699;28;20072;-70
2022/08/26 05:05:56;;;;;;;24.30;11.48;;;;;;;30.52;28.57;99992.28;5030497;28;20048;-70
2022/08/26 05:08:23;;;;;;;22.92;12.35;;;;;;;30.71;28.61;100012.53;5047240;28;20045;-71
2022/08/26 05:10:56;;;;;;;25.58;11.63;;;;;;;30.89;28.55;100003.69;5013842;28;20045;-72
2022/08/26 05:13:25;;;;;;;28.70;12.23;;;;;;;30.87;28.51;100013.31;5013378;28;20045;-72
2022/08/26 05:15:51;;;;;;;21.90;11.77;;;;;;;30.81;27.77;100011.69;5029959;28;20057;-71
2022/08/26 05:18:20;;;;;;;24.80;12.13;;;;;;;31.09;27.95;100011.03;5013840;28;20084;-71
2022/08/26 05:20:48;;;;;;;19.17;11.15;;;;;;;31.32;27.56;99998.56;5030449;28;20056;-73
2022/08/26 05:23:15;;;;;;;26.63;11.80;;;;;;;31.47;28.50;100015.75;5030095;28;20049;-72
2022/08/26 05:25:43;;;;;;;24.17;11.70;;;;;;;31.60;27.16;100012.34;4997426;28;20519;-72
2022/08/26 05:28:11;;;;;;;23.98;10.90;;;;;;;31.73;28.13;100013.63;5030085;28;20041;-73
2022/08/26 05:30:38;;;;;;;21.23;11.65;;;;;;;32.04;28.52;100026.03;5029824;28;20049;-71
2022/08/26 05:33:06;;;;;;;25.73;11.82;;;;;;;32.08;27.22;100025.16;4997174;28;20073;-71
2022/08/26 05:35:33;;;;;;;24.65;12.98;;;;;;;32.29;28.51;100026.59;5029693;28;20081;-71
2022/08/26 05:38:00;;;;;;;36.63;12.05;;;;;;;32.46;28.09;100015.97;5013324;28;20046;-71
2022/08/26 05:40:27;;;;;;;28.48;11.07;;;;;;;32.57;27.30;100017.50;5029288;28;20057;-71
2022/08/26 05:42:54;;;;;;;30.92;10.52;;;;;;;32.74;25.78;100025.28;4997029;28;20516;-72
2022/08/26 05:45:23;;;;;;;20.17;10.40;;;;;;;32.93;25.72;100020.69;5029259;28;20041;-71
2022/08/26 05:47:49;;;;;;;29.00;10.45;;;;;;;33.20;26.18;100022.81;4997257;28;20037;-71
2022/08/26 05:50:20;;;;;;;25.67;10.82;;;;;;;33.35;25.79;100028.09;4996919;28;20046;-70
2022/08/26 05:52:48;;;;;;;25.92;10.32;;;;;;;33.50;24.90;100033.41;5046088;28;20052;-73
2022/08/26 05:55:14;;;;;;;27.80;10.60;;;;;;;33.25;24.93;100022.72;5012934;28;20041;-71
2022/08/26 05:57:40;;;;;;;40.10;11.18;;;;;;;33.33;25.61;100030.31;4996634;28;20083;-72
2022/08/26 06:00:06;;;;;;;42.72;11.95;;;;;;;33.52;25.71;100026.47;5014084;28;20662;-68
2022/08/26 06:02:38;;;;;;;25.98;10.57;;;;;;;33.67;24.85;100033.69;5032020;28;20061;-69
2022/08/26 06:05:05;;;;;;;22.95;10.48;;;;;;;33.91;24.87;100026.13;5012623;28;20111;-71
2022/08/26 06:08:13;;;;;;;32.50;11.35;;;;;;;33.96;25.41;100031.56;5012570;28;20504;-72
2022/08/26 06:10:21;;;;;;;36.72;11.40;;;;;;;34.03;25.48;100035.56;5017465;28;20530;-70
2022/08/26 06:12:47;;;;;;;30.83;10.73;;;;;;;34.08;24.00;100029.97;5011985;28;20057;-70
2022/08/26 06:15:13;;;;;;;25.13;9.60;;;;;;;34.21;23.79;100029.16;5029131;28;20049;-71
2022/08/26 06:17:39;;;;;;;28.15;10.45;;;;;;;34.47;24.08;100034.25;4996740;28;20455;-71
2022/08/26 06:20:06;;;;;;;23.77;9.18;;;;;;;34.54;23.31;100029.97;4980076;28;20139;-73
2022/08/26 06:25:37;;;;;;;31.95;9.60;;;;;;;34.63;22.81;100036.41;4998304;28;20053;-71
2022/08/26 06:28:04;;;;;;;28.88;8.48;;;;;;;34.76;21.57;100032.00;5012223;28;20069;-71
2022/08/26 06:30:32;;;;;;;31.48;9.20;;;;;;;34.81;21.37;100035.50;5012528;28;20045;-72
2022/08/26 06:33:03;;;;;;;17.98;7.88;;;;;;;34.68;21.80;100036.31;5027695;28;20049;-70
2022/08/26 06:35:29;;;;;;;21.67;8.15;;;;;;;34.57;21.71;100034.06;4993976;28;20042;-70
2022/08/26 06:37:55;;;;;;;20.90;8.43;;;;;;;34.74;21.68;100031.50;5010289;28;20049;-71
2022/08/26 06:40:23;;;;;;;16.92;7.75;;;;;;;34.94;21.09;100042.97;4993865;28;20509;-70
2022/08/26 06:42:49;;;;;;;17.60;7.30;;;;;;;35.00;21.06;100043.69;4977869;28;20056;-71
2022/08/26 06:45:14;;;;;;;21.40;7.90;;;;;;;34.98;20.68;100043.19;4978972;28;20041;-70
2022/08/26 06:47:40;;;;;;;18.50;7.50;;;;;;;35.16;20.86;100040.31;4979805;28;20069;-69
2022/08/26 06:50:07;;;;;;;20.08;8.43;;;;;;;35.37;20.58;100046.19;5012181;28;20084;-69
2022/08/26 06:52:32;;;;;;;25.48;7.75;;;;;;;35.63;20.46;100039.78;5012526;28;20072;-69
2022/08/26 06:54:58;;;;;;;20.15;7.57;;;;;;;35.77;20.44;100036.16;5011846;28;20049;-69
2022/08/26 06:57:24;;;;;;;12.27;6.60;;;;;;;36.00;19.65;100040.56;5012254;28;20127;-69
2022/08/26 06:59:50;;;;;;;14.27;6.30;;;;;;;36.06;18.32;100042.06;5028653;28;20051;-69
2022/08/26 07:02:16;;;;;;;15.70;6.20;;;;;;;36.21;18.17;100038.91;4995454;28;20176;-71
2022/08/26 07:04:43;;;;;;;18.00;7.20;;;;;;;36.48;17.94;100034.03;5012232;28;20493;-69
2022/08/26 07:07:13;;;;;;;13.90;6.38;;;;;;;36.56;17.69;100033.25;5026148;28;20033;-69
2022/08/26 07:09:38;;;;;;;18.73;6.53;;;;;;;36.73;17.89;100032.50;5034590;28;20045;-70
2022/08/26 07:12:05;;;;;;;17.38;6.80;;;;;;;36.99;17.99;100027.88;5028397;28;20051;-71
2022/08/26 07:14:32;;;;;;;12.75;6.90;;;;;;;37.31;18.05;100026.66;5022536;28;20095;-70
2022/08/26 07:17:01;;;;;;;17.17;6.88;;;;;;;37.58;18.45;100026.34;5027628;28;20128;-69
2022/08/26 07:19:27;;;;;;;15.13;6.65;;;;;;;37.74;18.39;100025.53;5037988;28;20053;-70
2022/08/26 07:21:52;;;;;;;17.83;7.38;;;;;;;38.02;18.63;100029.59;5010648;28;20041;-70
2022/08/26 07:24:18;;;;;;;20.58;7.90;;;;;;;38.20;17.77;100027.59;4996593;28;20060;-70
2022/08/26 07:26:44;;;;;;;26.98;8.70;;;;;;;38.32;17.88;100028.53;5002890;28;20188;-71
2022/08/26 07:29:15;;;;;;;20.85;7.80;;;;;;;38.61;18.35;100027.84;5038084;28;20053;-75
2022/08/26 07:31:41;;;;;;;27.73;11.10;;;;;;;38.74;17.00;100041.47;5005841;28;20041;-72
2022/08/26 07:34:08;;;;;;;27.85;9.50;;;;;;;38.82;16.93;100033.44;4992595;28;20539;-72
2022/08/26 07:36:34;;;;;;;20.98;9.13;;;;;;;39.09;16.92;100024.66;5012333;28;20041;-72
2022/08/26 07:39:00;;;;;;;22.42;9.32;;;;;;;39.79;16.89;100025.41;4996702;28;20048;-73
2022/08/26 07:41:26;;;;;;;21.23;9.57;;;;;;;40.99;16.35;100032.41;5002977;28;20041;-70
2022/08/26 07:43:52;;;;;;;23.05;8.35;;;;;;;43.50;14.25;100027.75;5021371;28;20052;-70
2022/08/26 07:46:18;;;;;;;18.23;8.57;;;;;;;46.02;11.92;100028.41;5018754;28;20041;-71
2022/08/26 07:48:46;;;;;;;29.50;8.15;;;;;;;48.12;9.91;100031.13;5003084;28;20041;-71
2022/08/26 07:51:13;;;;;;;22.40;8.32;;;;;;;49.89;8.80;100039.78;4995457;28;20045;-70
2022/08/26 07:53:39;;;;;;;20.80;7.18;;;;;;;51.27;8.15;100036.69;5035298;28;20128;-71
2022/08/26 07:56:05;;;;;;;19.73;6.80;;;;;;;52.75;7.04;100041.91;5005308;28;20730;-72
2022/08/26 07:58:31;;;;;;;22.85;6.85;;;;;;;53.83;6.25;100034.53;5011948;28;20045;-71
2022/08/26 08:00:57;;;;;;;24.20;6.97;;;;;;;54.78;6.04;100027.34;4997163;28;20041;-71
2022/08/26 08:03:23;;;;;;;28.15;7.60;;;;;;;55.17;5.37;100032.84;5023800;28;20076;-71
2022/08/26 08:05:49;;;;;;;24.58;7.20;;;;;;;55.39;5.47;100033.03;5023158;28;20175;-71
2022/08/26 08:08:15;;;;;;;27.90;6.82;;;;;;;56.17;5.11;100032.28;5022959;28;20049;-71
2022/08/26 08:10:43;;;;;;;21.38;7.30;;;;;;;56.70;4.78;100024.84;5026077;28;20049;-72
2022/08/26 08:13:09;;;;;;;30.45;7.38;;;;;;;56.81;4.34;100028.88;5027304;28;20038;-73
2022/08/26 08:15:36;;;;;;;23.13;6.20;;;;;;;56.90;4.69;100025.34;4998869;28;20037;-72
2022/08/26 08:18:03;;;;;;;32.83;6.90;;;;;;;57.81;4.12;100019.03;4999845;28;20044;-73
2022/08/26 08:20:29;;;;;;;30.60;6.65;;;;;;;58.71;3.45;100015.75;5028586;28;20049;-73
2022/08/26 08:22:55;;;;;;;30.73;6.10;;;;;;;59.74;2.97;100009.78;4998000;28;20049;-72
2022/08/26 08:25:21;;;;;;;24.05;5.57;;;;;;;60.44;2.48;100017.78;4981698;28;20041;-71
2022/08/26 08:27:48;;;;;;;23.30;5.40;;;;;;;61.10;2.10;100010.59;4998727;28;20136;-72
2022/08/26 08:30:16;;;;;;;30.92;6.45;;;;;;;60.85;2.52;99996.75;5030005;28;20049;-72
2022/08/26 08:32:42;;;;;;;25.30;6.55;;;;;;;60.63;2.75;100009.81;5012910;28;20049;-72
2022/08/26 08:35:10;;;;;;;32.90;5.90;;;;;;;60.75;2.36;100006.72;5030564;28;20456;-72
2022/08/26 08:37:36;;;;;;;28.08;6.07;;;;;;;60.50;2.49;99999.38;5012915;28;20516;-72
2022/08/26 08:40:04;;;;;;;13.48;4.15;;;;;;;60.11;2.25;99986.25;5002445;28;20074;-72
2022/08/26 08:42:45;;;;;;;12.20;4.20;;;;;;;60.32;1.67;99998.69;5016718;28;20139;-72
2022/08/26 08:45:34;;;;;;;12.05;3.53;;;;;;;59.64;1.30;99982.44;4997380;28;20509;-72
2022/08/26 08:48:04;;;;;;;13.20;3.67;;;;;;;57.39;2.38;99986.38;4981855;28;20453;-71
2022/08/26 08:50:33;;;;;;;11.00;3.75;;;;;;;55.46;3.22;99975.84;4997996;28;20053;-72
2022/08/26 08:53:12;;;;;;;17.02;3.78;;;;;;;56.57;2.67;99972.63;4998227;28;20049;-72
2022/08/26 08:55:45;;;;;;;6.18;3.25;;;;;;;58.60;2.06;99966.72;5014212;28;20041;-72
2022/08/26 08:58:17;;;;;;;7.43;3.58;;;;;;;58.92;1.26;99978.34;5030740;28;20049;-71
2022/08/26 09:01:03;;;;;;;14.77;3.72;;;;;;;60.06;1.19;99980.31;4997918;28;20044;-73
2022/08/26 09:03:41;;;;;;;11.70;3.50;;;;;;;59.69;1.14;99973.13;5030155;28;20045;-72
2022/08/26 09:06:15;;;;;;;8.50;3.45;;;;;;;60.50;1.32;99984.25;5031528;28;20420;-71
2022/08/26 09:08:44;;;;;;;9.73;3.53;;;;;;;61.28;0.67;99984.56;5030348;28;20104;-71
2022/08/26 09:11:10;;;;;;;11.93;2.95;;;;;;;62.29;0.32;99982.03;5008430;28;20061;-72
2022/08/26 09:13:37;;;;;;;12.18;3.30;;;;;;;62.85;0.29;99976.53;5012949;28;20535;-72
2022/08/26 09:16:17;;;;;;;8.63;3.15;;;;;;;63.62;0.00;99965.00;4981373;28;20072;-73
2022/08/26 09:19:10;;;;;;;8.40;2.97;;;;;;;62.18;0.00;99971.16;4998820;28;20045;-71
2022/08/26 09:21:36;;;;;;;9.82;3.10;;;;;;;62.22;0.22;99968.06;5021915;28;20140;-72
2022/08/26 09:24:02;;;;;;;11.32;2.95;;;;;;;62.98;0.00;99961.72;5011525;28;20135;-72
2022/08/26 09:26:47;;;;;;;17.65;3.20;;;;;;;63.90;0.00;99945.00;5049123;28;20072;-71
2022/08/26 09:29:18;;;;;;;5.68;3.15;;;;;;;60.17;0.42;99966.25;5033379;28;20052;-72
2022/08/26 09:31:44;;;;;;;10.20;3.25;;;;;;;59.94;0.52;99947.72;5016740;28;20040;-72
2022/08/26 09:34:17;;;;;;;8.50;2.85;;;;;;;61.01;0.46;99938.81;5000069;28;20084;-72
2022/08/26 09:36:46;;;;;;;7.57;3.03;;;;;;;62.19;0.20;99951.81;5050007;28;20048;-72
2022/08/26 09:39:27;;;;;;;11.63;3.13;;;;;;;62.80;0.02;99942.66;5016812;28;20136;-73
2022/08/26 09:42:07;;;;;;;9.80;3.00;;;;;;;63.48;0.00;99957.28;5033016;28;20295;-71
2022/08/26 09:44:34;;;;;;;12.55;3.10;;;;;;;61.66;0.11;99946.25;5000073;28;20053;-71
2022/08/26 09:47:04;;;;;;;10.13;3.30;;;;;;;61.12;0.24;99953.41;5032707;28;20036;-72
2022/08/26 09:49:38;;;;;;;9.10;3.00;;;;;;;60.00;0.33;99947.84;5049926;28;20044;-71
2022/08/26 09:52:13;;;;;;;9.93;3.33;;;;;;;57.49;1.30;99942.28;5051160;28;20072;-73
2022/08/26 09:54:40;;;;;;;7.82;3.05;;;;;;;55.97;1.88;99934.72;5016008;28;20087;-72
2022/08/26 09:57:33;;;;;;;9.13;3.47;;;;;;;58.05;1.48;99924.91;5032163;28;20037;-72
2022/08/26 10:00:00;;;;;;;6.70;3.22;;;;;;;59.92;0.64;99935.94;5032140;28;20053;-73
2022/08/26 10:02:35;;;;;;;8.60;3.20;;;;;;;61.20;0.36;99936.53;5024461;28;20053;-73
2022/08/26 10:05:05;;;;;;;6.60;2.58;;;;;;;61.68;0.00;99927.22;5024349;28;20532;-73
2022/08/26 10:07:40;;;;;;;14.77;2.75;;;;;;;60.14;0.00;99936.47;5007364;28;20049;-74
2022/08/26 10:10:10;;;;;;;8.25;2.72;;;;;;;58.81;0.41;99925.66;5024791;28;20077;-73
2022/08/26 10:12:46;;;;;;;17.83;3.10;;;;;;;57.41;1.24;99927.47;5008898;28;20041;-73
2022/08/26 10:15:12;;;;;;;7.90;3.17;;;;;;;56.26;1.64;99919.06;5010379;28;20389;-73
2022/08/26 10:18:09;;;;;;;7.22;3.50;;;;;;;56.82;1.86;99909.75;5014204;28;20068;-74
2022/08/26 10:20:37;;;;;;;7.82;3.42;;;;;;;58.21;1.17;99919.72;5049564;28;20049;-74
2022/08/26 10:23:11;;;;;;;18.80;3.95;;;;;;;58.12;1.34;99901.75;5015632;28;20107;-73
2022/08/26 10:25:45;;;;;;;7.45;3.58;;;;;;;58.49;1.02;99906.25;5032230;28;20087;-73
2022/08/26 10:28:22;;;;;;;8.85;3.25;;;;;;;56.68;1.32;99901.72;5032658;28;20045;-74
2022/08/26 10:31:17;;;;;;;8.77;3.42;;;;;;;56.99;1.74;99897.72;5049227;28;20507;-72
2022/08/26 10:33:43;;;;;;;9.20;3.65;;;;;;;58.04;1.28;99891.88;5032614;28;20136;-72
2022/08/26 10:36:47;;;;;;;5.75;2.95;;;;;;;57.20;0.86;99902.59;4999263;28;20183;-73
2022/08/26 10:39:00;;;;;;;11.18;3.10;;;;;;;55.11;1.65;99891.38;5018426;28;20045;-73
2022/08/26 10:41:31;;;;;;;5.53;3.30;;;;;;;53.65;2.40;99892.03;5032255;28;20139;-77
2022/08/26 10:43:59;;;;;;;7.03;3.83;;;;;;;54.19;2.40;99882.56;4999402;28;20591;-73
2022/08/26 10:46:31;;;;;;;8.25;3.50;;;;;;;54.84;1.88;99874.69;5053882;28;20051;-73
2022/08/26 10:48:59;;;;;;;7.97;3.00;;;;;;;54.53;1.72;99876.41;5031913;28;20055;-73
2022/08/26 10:51:34;;;;;;;13.18;3.55;;;;;;;54.26;1.85;99879.53;5048571;28;20045;-71
2022/08/26 10:54:17;;;;;;;7.05;3.53;;;;;;;53.53;2.04;99892.69;5048752;28;20086;-73
2022/08/26 10:57:04;;;;;;;7.07;3.33;;;;;;;52.36;2.95;99865.91;5047948;28;20562;-72
2022/08/26 10:59:48;;;;;;;6.72;3.22;;;;;;;50.91;2.68;99862.78;4999115;28;20045;-72
2022/08/26 11:02:41;;;;;;;19.42;3.15;;;;;;;50.47;2.74;99872.97;5031371;28;20056;-72
2022/08/26 11:05:21;;;;;;;5.05;3.08;;;;;;;49.94;3.97;99858.50;5015253;28;20443;-73
2022/08/26 11:07:54;;;;;;;4.50;3.60;;;;;;;50.30;3.74;99864.66;5016366;28;20080;-73
2022/08/26 11:10:20;;;;;;;11.85;3.78;;;;;;;49.44;4.19;99860.03;5048912;28;20055;-72
2022/08/26 11:12:51;;;;;;;7.40;4.20;;;;;;;47.69;5.39;99858.34;5014603;28;20045;-72
2022/08/26 11:15:20;;;;;;;8.60;3.97;;;;;;;45.99;6.22;99860.66;5032090;28;20041;-72
2022/08/26 11:17:45;;;;;;;9.73;4.32;;;;;;;44.68;7.07;99849.91;5031998;28;20041;-72
2022/08/26 11:20:44;;;;;;;9.00;4.18;;;;;;;43.85;7.76;99852.94;5031704;28;20059;-72
2022/08/26 11:23:21;;;;;;;8.47;4.00;;;;;;;43.02;7.87;99847.28;5015251;28;20139;-71
2022/08/26 11:26:09;;;;;;;10.50;4.80;;;;;;;43.26;8.02;99847.00;5048161;28;20290;-72
2022/08/26 11:28:46;;;;;;;12.40;4.75;;;;;;;43.49;8.14;99847.09;5031717;28;20139;-71
2022/08/26 11:31:18;;;;;;;6.18;4.10;;;;;;;42.58;8.32;99854.31;5032017;28;20057;-72
2022/08/26 11:33:49;;;;;;;9.32;4.43;;;;;;;42.17;8.88;99846.50;5027889;28;20139;-70
2022/08/26 11:36:39;;;;;;;7.25;4.75;;;;;;;42.48;8.94;99840.88;5022352;28;20033;-70
2022/08/26 11:39:34;;;;;;;12.52;4.53;;;;;;;42.18;8.86;99846.13;5002677;28;20126;-71